Time;durP1;ratioP1;P1;durP2;ratioP2;P2;SDS_P1;SDS_P2;PMS_P1;PMS_P2;Temp;Humidity;BMP_temperature;BMP_pressure;BME280_temperature;BME280_humidity;BME280_pressure;Samples;Min_cycle;Max_cycle;Signal;HPM_P1;HPM_P2
2023/12/02 00:01:27;;;;;;;0.50;0.50;;;;;;;;;;5117237;28;20237;-85
2023/12/02 00:03:56;;;;;;;0.68;0.68;;;;;;;;;;5136027;28;20249;-85
2023/12/02 00:06:23;;;;;;;1.10;0.50;;;;;;;;;;5135906;28;20310;-84
2023/12/02 00:08:52;;;;;;;1.35;0.55;;;;;;;;;;5136377;28;20236;-85
2023/12/02 00:11:23;;;;;;;1.30;0.60;;;;;;;;;;5140502;28;20217;-85
2023/12/02 00:13:57;;;;;;;1.33;0.50;;;;;;;;;;5142555;28;20799;-89
2023/12/02 00:16:25;;;;;;;2.95;0.90;;;;;;;;;;5145952;28;20229;-87
2023/12/02 00:18:56;;;;;;;0.55;0.55;;;;;;;;;;5149128;27;20214;-86
2023/12/02 00:21:23;;;;;;;0.65;0.40;;;;;;;;;;5119538;27;20330;-85
2023/12/02 00:23:50;;;;;;;5.03;0.55;;;;;;;;;;5121057;28;20207;-86
2023/12/02 00:26:19;;;;;;;2.03;0.45;;;;;;;;;;5108285;28;20207;-86
2023/12/02 00:28:48;;;;;;;1.13;0.70;;;;;;;;;;5120970;28;20256;-85
2023/12/02 00:31:22;;;;;;;0.32;0.30;;;;;;;;;;5134250;27;20271;-84
2023/12/02 00:33:52;;;;;;;2.10;0.50;;;;;;;;;;5109909;28;20196;-87
2023/12/02 00:36:19;;;;;;;0.55;0.55;;;;;;;;;;5121387;28;20198;-85
2023/12/02 00:38:47;;;;;;;2.47;0.68;;;;;;;;;;5121141;28;20685;-86
2023/12/02 00:41:14;;;;;;;4.57;0.65;;;;;;;;;;5120592;28;20222;-85
2023/12/02 00:43:42;;;;;;;0.75;0.50;;;;;;;;;;5120077;28;20210;-85
2023/12/02 00:46:11;;;;;;;2.47;0.55;;;;;;;;;;5121257;28;20214;-85
2023/12/02 00:48:43;;;;;;;2.10;0.70;;;;;;;;;;5118762;28;20186;-86
2023/12/02 00:51:11;;;;;;;0.60;0.60;;;;;;;;;;5116544;28;20196;-85
2023/12/02 00:53:38;;;;;;;0.50;0.50;;;;;;;;;;5116055;28;20202;-85
2023/12/02 00:56:07;;;;;;;4.38;0.68;;;;;;;;;;5118626;28;20308;-83
2023/12/02 00:58:36;;;;;;;1.75;0.70;;;;;;;;;;5116734;28;20232;-87
2023/12/02 01:01:03;;;;;;;2.65;0.60;;;;;;;;;;5118101;28;20231;-87
2023/12/02 01:03:31;;;;;;;2.85;0.70;;;;;;;;;;5117251;28;20256;-85
2023/12/02 01:06:16;;;;;;;;;;;;;;;;;;;;;
2023/12/02 01:08:50;;;;;;;1.63;0.77;;;;;;;;;;5116337;28;20206;-84
2023/12/02 01:11:18;;;;;;;2.00;1.13;;;;;;;;;;5122423;28;20182;-84
2023/12/02 01:13:45;;;;;;;0.47;0.47;;;;;;;;;;5126865;28;20208;-85
2023/12/02 01:16:13;;;;;;;0.50;0.50;;;;;;;;;;5127315;28;20191;-84
2023/12/02 01:18:40;;;;;;;1.75;1.00;;;;;;;;;;5123394;28;20232;-85
2023/12/02 01:21:09;;;;;;;0.93;0.60;;;;;;;;;;5123769;28;20257;-83
2023/12/02 01:23:37;;;;;;;0.52;0.52;;;;;;;;;;5121950;28;20216;-84
2023/12/02 01:26:04;;;;;;;1.15;0.57;;;;;;;;;;5120984;28;20641;-85
2023/12/02 01:28:32;;;;;;;2.08;0.80;;;;;;;;;;5119887;28;20199;-84
2023/12/02 01:31:04;;;;;;;0.80;0.80;;;;;;;;;;5115844;28;20202;-84
2023/12/02 01:33:32;;;;;;;3.20;0.80;;;;;;;;;;5116265;28;20190;-85
2023/12/02 01:35:59;;;;;;;5.13;0.93;;;;;;;;;;5117513;28;20230;-85
2023/12/02 01:38:28;;;;;;;1.27;0.73;;;;;;;;;;5116619;28;20309;-85
2023/12/02 01:40:56;;;;;;;0.75;0.55;;;;;;;;;;5115938;28;20228;-86
2023/12/02 01:43:25;;;;;;;1.55;0.80;;;;;;;;;;5115904;28;20231;-85
2023/12/02 01:45:56;;;;;;;1.42;0.80;;;;;;;;;;5124293;28;20271;-87
2023/12/02 01:48:27;;;;;;;1.80;0.77;;;;;;;;;;5127151;28;20776;-87
2023/12/02 01:50:55;;;;;;;2.80;0.68;;;;;;;;;;5137185;28;20187;-87
2023/12/02 01:53:24;;;;;;;3.85;1.05;;;;;;;;;;5129064;28;20215;-87
2023/12/02 01:55:53;;;;;;;3.72;0.50;;;;;;;;;;5117093;28;20243;-87
2023/12/02 01:58:20;;;;;;;0.63;0.63;;;;;;;;;;5120985;28;20247;-85
2023/12/02 02:00:47;;;;;;;2.25;0.85;;;;;;;;;;5117875;28;20662;-85
2023/12/02 02:03:16;;;;;;;5.03;0.90;;;;;;;;;;5122757;28;20246;-86
2023/12/02 02:05:45;;;;;;;3.20;0.88;;;;;;;;;;5136868;28;20242;-85
2023/12/02 02:08:11;;;;;;;3.65;1.05;;;;;;;;;;5129909;28;20319;-85
2023/12/02 02:10:39;;;;;;;0.90;0.90;;;;;;;;;;5118776;28;20210;-86
2023/12/02 02:13:09;;;;;;;6.95;1.00;;;;;;;;;;5119020;28;20198;-85
2023/12/02 02:15:37;;;;;;;0.70;0.70;;;;;;;;;;5115044;28;20206;-85
2023/12/02 02:18:07;;;;;;;1.58;0.80;;;;;;;;;;5115092;28;20707;-85
2023/12/02 02:20:34;;;;;;;0.80;0.80;;;;;;;;;;5115134;28;20202;-86
2023/12/02 02:23:02;;;;;;;1.30;1.20;;;;;;;;;;5113272;28;20316;-87
2023/12/02 02:25:32;;;;;;;0.90;0.80;;;;;;;;;;5115512;28;20604;-87
2023/12/02 02:28:00;;;;;;;5.93;0.70;;;;;;;;;;5114378;28;20195;-87
2023/12/02 02:30:27;;;;;;;0.93;0.60;;;;;;;;;;5114886;28;20542;-87
2023/12/02 02:32:54;;;;;;;8.30;0.93;;;;;;;;;;5114215;28;20658;-86
2023/12/02 02:35:21;;;;;;;4.90;1.10;;;;;;;;;;5114904;28;20207;-84
2023/12/02 02:37:48;;;;;;;2.33;1.20;;;;;;;;;;5113684;28;20685;-85
2023/12/02 02:40:17;;;;;;;1.33;1.00;;;;;;;;;;5113829;28;20676;-85
2023/12/02 02:42:46;;;;;;;2.87;1.30;;;;;;;;;;5111379;28;20239;-86
2023/12/02 02:45:14;;;;;;;2.70;1.33;;;;;;;;;;5114245;28;20188;-88
2023/12/02 02:47:42;;;;;;;2.20;1.03;;;;;;;;;;5113853;28;20196;-87
2023/12/02 02:50:10;;;;;;;3.43;1.00;;;;;;;;;;5114715;28;20197;-87
2023/12/02 02:52:37;;;;;;;1.57;1.23;;;;;;;;;;5113385;28;20675;-87
2023/12/02 02:55:04;;;;;;;1.20;1.10;;;;;;;;;;5115468;28;20276;-89
2023/12/02 02:57:33;;;;;;;3.70;1.10;;;;;;;;;;5115558;28;20226;-88
2023/12/02 03:00:00;;;;;;;0.93;0.90;;;;;;;;;;5114367;28;20203;-87
2023/12/02 03:02:29;;;;;;;4.00;1.40;;;;;;;;;;5114152;28;20661;-86
2023/12/02 03:04:56;;;;;;;2.40;1.30;;;;;;;;;;5113591;28;20224;-86
2023/12/02 03:07:24;;;;;;;1.50;0.90;;;;;;;;;;5113663;28;20297;-85
2023/12/02 03:09:51;;;;;;;1.97;1.50;;;;;;;;;;5114069;28;20229;-86
2023/12/02 03:12:19;;;;;;;2.80;0.87;;;;;;;;;;5119683;28;20269;-85
2023/12/02 03:14:48;;;;;;;1.23;1.13;;;;;;;;;;5113393;28;20225;-85
2023/12/02 03:17:15;;;;;;;2.63;1.07;;;;;;;;;;5113254;28;20264;-87
2023/12/02 03:19:42;;;;;;;7.30;1.00;;;;;;;;;;5113319;28;20696;-85
2023/12/02 03:22:10;;;;;;;0.93;0.93;;;;;;;;;;5112833;28;20380;-86
2023/12/02 03:24:37;;;;;;;1.30;1.20;;;;;;;;;;5114240;28;20228;-86
2023/12/02 03:27:04;;;;;;;2.13;1.20;;;;;;;;;;5112731;28;20253;-85
2023/12/02 03:29:33;;;;;;;2.57;1.00;;;;;;;;;;5113784;28;20215;-85
2023/12/02 03:32:02;;;;;;;4.97;1.27;;;;;;;;;;5117709;28;20207;-85
2023/12/02 03:34:29;;;;;;;1.60;1.50;;;;;;;;;;5120873;28;20200;-87
2023/12/02 03:36:57;;;;;;;1.03;0.83;;;;;;;;;;5121454;28;20199;-85
2023/12/02 03:39:24;;;;;;;1.10;1.00;;;;;;;;;;5123868;28;20219;-85
2023/12/02 03:41:51;;;;;;;1.97;0.87;;;;;;;;;;5122266;28;20256;-86
2023/12/02 03:44:18;;;;;;;1.63;0.80;;;;;;;;;;5123244;28;20638;-85
2023/12/02 03:46:45;;;;;;;4.10;1.27;;;;;;;;;;5116819;28;20209;-86
2023/12/02 03:49:14;;;;;;;4.40;0.87;;;;;;;;;;5121076;28;20197;-85
2023/12/02 03:51:41;;;;;;;2.40;0.93;;;;;;;;;;5124259;28;20199;-84
2023/12/02 03:54:09;;;;;;;1.90;1.07;;;;;;;;;;5121324;28;20197;-85
2023/12/02 03:56:38;;;;;;;1.77;0.90;;;;;;;;;;5121163;28;20204;-85
2023/12/02 03:59:05;;;;;;;1.50;1.27;;;;;;;;;;5115171;28;20236;-85
2023/12/02 04:01:32;;;;;;;1.80;1.13;;;;;;;;;;5121106;28;20241;-87
2023/12/02 04:03:59;;;;;;;3.20;1.00;;;;;;;;;;5121712;28;20198;-86
2023/12/02 04:06:30;;;;;;;4.00;1.23;;;;;;;;;;5117741;28;20204;-88
2023/12/02 04:08:58;;;;;;;1.63;0.93;;;;;;;;;;5117963;28;20218;-87
2023/12/02 04:11:26;;;;;;;3.00;1.20;;;;;;;;;;5116391;28;20284;-88
2023/12/02 04:13:54;;;;;;;1.07;1.07;;;;;;;;;;5113491;28;20192;-86
2023/12/02 04:16:23;;;;;;;3.17;0.90;;;;;;;;;;5114111;28;20192;-87
2023/12/02 04:18:53;;;;;;;1.00;0.93;;;;;;;;;;5112976;28;20193;-86
2023/12/02 04:21:21;;;;;;;1.00;0.97;;;;;;;;;;5111874;28;20627;-85
2023/12/02 04:23:50;;;;;;;2.03;1.00;;;;;;;;;;5113169;28;20203;-84
2023/12/02 04:26:17;;;;;;;0.70;0.60;;;;;;;;;;5114774;28;20657;-86
2023/12/02 04:28:45;;;;;;;1.03;1.03;;;;;;;;;;5119686;28;20230;-87
2023/12/02 04:31:13;;;;;;;2.17;0.93;;;;;;;;;;5123189;28;20196;-86
2023/12/02 04:33:40;;;;;;;2.43;1.77;;;;;;;;;;5126945;28;20191;-87
2023/12/02 04:36:09;;;;;;;4.10;1.07;;;;;;;;;;5134095;28;20189;-86
2023/12/02 04:38:36;;;;;;;1.53;1.03;;;;;;;;;;5117195;28;20293;-85
2023/12/02 04:41:05;;;;;;;0.77;0.70;;;;;;;;;;5114670;28;20201;-86
2023/12/02 04:43:34;;;;;;;9.83;1.33;;;;;;;;;;5113846;28;20708;-86
2023/12/02 04:46:01;;;;;;;2.00;0.90;;;;;;;;;;5112326;28;20209;-85
2023/12/02 04:48:29;;;;;;;3.37;1.17;;;;;;;;;;5113026;28;20202;-85
2023/12/02 04:50:57;;;;;;;2.70;1.43;;;;;;;;;;5111995;28;20659;-85
2023/12/02 04:53:25;;;;;;;1.27;1.10;;;;;;;;;;5113688;28;20329;-85
2023/12/02 04:55:52;;;;;;;2.80;1.30;;;;;;;;;;5113517;28;20215;-86
2023/12/02 04:58:23;;;;;;;2.93;1.17;;;;;;;;;;5111553;28;20328;-86
2023/12/02 05:00:51;;;;;;;4.43;1.60;;;;;;;;;;5111187;28;20229;-86
2023/12/02 05:03:18;;;;;;;1.00;1.00;;;;;;;;;;5112634;28;20647;-86
2023/12/02 05:05:49;;;;;;;1.30;1.10;;;;;;;;;;5111106;28;20200;-86
2023/12/02 05:08:16;;;;;;;1.93;1.20;;;;;;;;;;5115848;28;20264;-85
2023/12/02 05:10:43;;;;;;;0.70;0.70;;;;;;;;;;5116252;28;20290;-85
2023/12/02 05:13:10;;;;;;;1.73;0.90;;;;;;;;;;5115313;28;20664;-86
2023/12/02 05:15:40;;;;;;;4.30;1.47;;;;;;;;;;5116784;28;20198;-85
2023/12/02 05:18:06;;;;;;;5.23;1.10;;;;;;;;;;5116515;28;20243;-85
2023/12/02 05:20:35;;;;;;;1.50;1.07;;;;;;;;;;5114479;28;20338;-86
2023/12/02 05:23:02;;;;;;;1.07;0.90;;;;;;;;;;5116980;28;20257;-85
2023/12/02 05:25:29;;;;;;;2.97;1.00;;;;;;;;;;5116016;28;20201;-85
2023/12/02 05:27:56;;;;;;;2.17;0.90;;;;;;;;;;5114814;28;20195;-87
2023/12/02 05:30:24;;;;;;;3.63;0.90;;;;;;;;;;5115020;28;20629;-86
2023/12/02 05:32:53;;;;;;;1.07;1.03;;;;;;;;;;5116062;28;20200;-86
2023/12/02 05:35:21;;;;;;;5.37;1.40;;;;;;;;;;5114636;28;20197;-87
2023/12/02 05:37:50;;;;;;;4.83;1.20;;;;;;;;;;5118543;28;20193;-86
2023/12/02 05:40:17;;;;;;;6.10;0.90;;;;;;;;;;5116015;28;20220;-85
2023/12/02 05:42:44;;;;;;;6.30;0.73;;;;;;;;;;5114394;28;20237;-86
2023/12/02 05:45:12;;;;;;;2.13;0.83;;;;;;;;;;5117588;28;20221;-87
2023/12/02 05:47:39;;;;;;;1.60;0.70;;;;;;;;;;5119357;28;20272;-86
2023/12/02 05:50:09;;;;;;;6.13;1.40;;;;;;;;;;5115162;28;20282;-85
2023/12/02 05:52:37;;;;;;;1.50;1.10;;;;;;;;;;5115174;28;20295;-88
2023/12/02 05:55:05;;;;;;;1.00;1.00;;;;;;;;;;5114715;28;20190;-87
2023/12/02 05:57:33;;;;;;;1.33;1.00;;;;;;;;;;5113629;28;20612;-85
2023/12/02 06:00:01;;;;;;;2.63;0.90;;;;;;;;;;5114910;28;20202;-86
2023/12/02 06:02:29;;;;;;;1.10;1.10;;;;;;;;;;5115708;28;20238;-87
2023/12/02 06:04:57;;;;;;;3.70;1.13;;;;;;;;;;5114285;28;20233;-87
2023/12/02 06:07:26;;;;;;;0.90;0.90;;;;;;;;;;5114804;28;20655;-86
2023/12/02 06:10:02;;;;;;;1.43;1.03;;;;;;;;;;5116317;28;20200;-88
2023/12/02 06:12:32;;;;;;;2.30;1.20;;;;;;;;;;5115464;28;20203;-88
2023/12/02 06:15:02;;;;;;;2.57;1.03;;;;;;;;;;5116560;28;20253;-85
2023/12/02 06:17:31;;;;;;;10.93;1.20;;;;;;;;;;5127787;28;20204;-87
2023/12/02 06:19:59;;;;;;;1.07;1.07;;;;;;;;;;5130349;28;20219;-85
2023/12/02 06:22:29;;;;;;;2.50;1.37;;;;;;;;;;5126094;28;20227;-87
2023/12/02 06:24:58;;;;;;;1.13;1.13;;;;;;;;;;5132703;28;20184;-87
2023/12/02 06:27:26;;;;;;;3.57;1.33;;;;;;;;;;5129110;28;20191;-84
2023/12/02 06:29:53;;;;;;;3.23;2.17;;;;;;;;;;5129980;28;20210;-86
2023/12/02 06:32:24;;;;;;;5.87;1.30;;;;;;;;;;5130140;28;20202;-87
2023/12/02 06:34:52;;;;;;;2.07;1.17;;;;;;;;;;5128549;28;20256;-87
2023/12/02 06:37:20;;;;;;;7.10;1.20;;;;;;;;;;5122975;28;20190;-88
2023/12/02 06:39:50;;;;;;;1.70;1.10;;;;;;;;;;5116256;28;20243;-87
2023/12/02 06:42:17;;;;;;;0.90;0.90;;;;;;;;;;5114577;28;20181;-87
2023/12/02 06:44:46;;;;;;;1.40;1.17;;;;;;;;;;5123358;28;20267;-87
2023/12/02 06:47:14;;;;;;;3.43;1.03;;;;;;;;;;5133695;28;20201;-87
2023/12/02 06:49:48;;;;;;;5.83;1.77;;;;;;;;;;5126466;28;20297;-87
2023/12/02 06:52:20;;;;;;;4.27;1.30;;;;;;;;;;5118185;28;20203;-86
2023/12/02 06:54:52;;;;;;;1.53;1.20;;;;;;;;;;5127821;27;20322;-87
2023/12/02 06:57:25;;;;;;;2.20;2.07;;;;;;;;;;5114992;28;20206;-87
2023/12/02 06:59:55;;;;;;;2.53;1.30;;;;;;;;;;5094973;28;20225;-85
2023/12/02 07:02:22;;;;;;;2.20;1.00;;;;;;;;;;5095354;28;20204;-85
2023/12/02 07:04:50;;;;;;;2.03;1.20;;;;;;;;;;5093932;28;20201;-87
2023/12/02 07:07:21;;;;;;;1.00;1.00;;;;;;;;;;5097037;28;20281;-86
2023/12/02 07:09:54;;;;;;;3.30;1.03;;;;;;;;;;5095801;28;20204;-86
2023/12/02 07:12:23;;;;;;;2.27;1.30;;;;;;;;;;5097900;28;20192;-86
2023/12/02 07:14:56;;;;;;;2.17;1.37;;;;;;;;;;5100548;28;20195;-86
2023/12/02 07:17:28;;;;;;;1.93;1.30;;;;;;;;;;5102756;28;20199;-84
2023/12/02 07:19:57;;;;;;;3.57;1.07;;;;;;;;;;5104310;28;20294;-86
2023/12/02 07:22:26;;;;;;;5.27;1.10;;;;;;;;;;5097201;28;20433;-86
2023/12/02 07:24:54;;;;;;;3.13;1.17;;;;;;;;;;5095770;28;20292;-87
2023/12/02 07:27:32;;;;;;;4.97;1.13;;;;;;;;;;5094108;28;20232;-86
2023/12/02 07:30:02;;;;;;;2.27;1.00;;;;;;;;;;5082823;28;20210;-86
2023/12/02 07:32:29;;;;;;;5.50;1.47;;;;;;;;;;5093655;28;20197;-86
2023/12/02 07:35:06;;;;;;;5.00;1.30;;;;;;;;;;5093372;28;20201;-85
2023/12/02 07:37:48;;;;;;;;;;;;;;;;;;;;;
2023/12/02 07:40:16;;;;;;;6.60;1.40;;;;;;;;;;5097887;28;20213;-87
2023/12/02 07:42:45;;;;;;;1.87;1.40;;;;;;;;;;5093532;28;20236;-86
2023/12/02 07:45:14;;;;;;;6.50;1.20;;;;;;;;;;5094121;28;20209;-86
2023/12/02 07:47:41;;;;;;;2.00;1.40;;;;;;;;;;5092675;28;20189;-87
2023/12/02 07:50:13;;;;;;;3.03;1.47;;;;;;;;;;5092602;28;20224;-84
2023/12/02 07:52:46;;;;;;;0.97;0.90;;;;;;;;;;5093882;28;20196;-87
2023/12/02 07:55:14;;;;;;;6.43;1.53;;;;;;;;;;5092747;28;20262;-87
2023/12/02 07:57:43;;;;;;;4.03;1.27;;;;;;;;;;5096990;28;20202;-86
2023/12/02 08:00:13;;;;;;;1.40;1.30;;;;;;;;;;5116648;28;20210;-86
2023/12/02 08:02:40;;;;;;;3.33;1.00;;;;;;;;;;5112644;28;20216;-86
2023/12/02 08:05:09;;;;;;;1.57;1.00;;;;;;;;;;5113656;28;20203;-87
2023/12/02 08:07:37;;;;;;;5.30;1.00;;;;;;;;;;5116466;28;20188;-86
2023/12/02 08:10:17;;;;;;;4.90;0.87;;;;;;;;;;5115896;28;20205;-86
2023/12/02 08:12:51;;;;;;;2.80;1.30;;;;;;;;;;5111868;28;20209;-85
2023/12/02 08:15:27;;;;;;;4.27;1.83;;;;;;;;;;5111261;28;20185;-86
2023/12/02 08:18:08;;;;;;;5.40;1.70;;;;;;;;;;5111103;28;20336;-86
2023/12/02 08:20:37;;;;;;;5.30;1.30;;;;;;;;;;5110766;28;20199;-85
2023/12/02 08:23:05;;;;;;;1.23;1.23;;;;;;;;;;5113494;28;20341;-88
2023/12/02 08:25:33;;;;;;;2.80;1.17;;;;;;;;;;5114686;28;20197;-85
2023/12/02 08:28:04;;;;;;;6.00;1.37;;;;;;;;;;5113642;28;20203;-87
2023/12/02 08:30:32;;;;;;;4.93;1.23;;;;;;;;;;5113173;28;20198;-86
2023/12/02 08:33:03;;;;;;;6.50;1.80;;;;;;;;;;5110406;28;20204;-86
2023/12/02 08:35:31;;;;;;;5.27;1.73;;;;;;;;;;5110558;28;20205;-87
2023/12/02 08:38:02;;;;;;;5.27;1.50;;;;;;;;;;5111035;28;20746;-87
2023/12/02 08:40:34;;;;;;;6.47;2.37;;;;;;;;;;5112042;28;20242;-87
2023/12/02 08:43:17;;;;;;;3.67;1.50;;;;;;;;;;5116229;28;20280;-85
2023/12/02 08:46:00;;;;;;;5.97;2.10;;;;;;;;;;5117862;28;20206;-86
2023/12/02 08:48:38;;;;;;;1.97;1.40;;;;;;;;;;5115239;28;20211;-86
2023/12/02 08:51:07;;;;;;;2.33;1.60;;;;;;;;;;5116458;28;20211;-87
2023/12/02 08:53:35;;;;;;;4.50;1.30;;;;;;;;;;5116724;28;20256;-87
2023/12/02 08:56:05;;;;;;;3.23;1.50;;;;;;;;;;5116155;28;20219;-86
2023/12/02 08:58:35;;;;;;;6.47;1.80;;;;;;;;;;5116007;28;20804;-87
2023/12/02 09:01:10;;;;;;;8.73;1.90;;;;;;;;;;5117150;28;20285;-87
2023/12/02 09:03:38;;;;;;;5.03;1.70;;;;;;;;;;5117237;28;20253;-87
2023/12/02 09:06:07;;;;;;;27.63;3.40;;;;;;;;;;5119334;28;20252;-85
2023/12/02 09:08:38;;;;;;;2.60;1.93;;;;;;;;;;5118063;28;20748;-86
2023/12/02 09:11:07;;;;;;;8.93;1.73;;;;;;;;;;5118423;28;20630;-86
2023/12/02 09:13:43;;;;;;;6.60;1.77;;;;;;;;;;5115835;28;20192;-87
2023/12/02 09:19:10;;;;;;;6.78;2.97;;;;;;;;;;5131154;28;20438;-85
2023/12/02 09:21:46;;;;;;;23.77;4.00;;;;;;;;;;5120314;28;20744;-86
2023/12/02 09:27:45;;;;;;;8.30;2.97;;;;;;;;;;5116079;28;20240;-86
2023/12/02 09:33:04;;;;;;;2.75;1.85;;;;;;;;;;5216894;22;20730;-88
2023/12/02 09:35:32;;;;;;;2.60;2.08;;;;;;;;;;5073003;28;20315;-85
2023/12/02 09:37:59;;;;;;;3.78;2.03;;;;;;;;;;5072228;28;20215;-87
2023/12/02 09:40:37;;;;;;;8.05;2.00;;;;;;;;;;5071059;28;20223;-87
2023/12/02 09:43:19;;;;;;;8.13;1.90;;;;;;;;;;5069799;28;20224;-86
2023/12/02 09:45:53;;;;;;;6.45;1.95;;;;;;;;;;5072484;28;20231;-85
2023/12/02 09:48:25;;;;;;;2.80;2.00;;;;;;;;;;5073212;28;20326;-87
2023/12/02 09:51:03;;;;;;;9.75;2.28;;;;;;;;;;5066114;28;20240;-84
2023/12/02 09:53:40;;;;;;;2.22;0.65;;;;;;;;;;5071361;28;20218;-87
2023/12/02 09:56:12;;;;;;;2.03;1.67;;;;;;;;;;5074120;28;20387;-85
2023/12/02 09:58:42;;;;;;;4.18;1.42;;;;;;;;;;5073788;28;20276;-87
2023/12/02 10:01:17;;;;;;;1.17;1.08;;;;;;;;;;5070173;28;20225;-88
2023/12/02 10:04:00;;;;;;;2.70;1.25;;;;;;;;;;5071979;28;20351;-86
2023/12/02 10:06:32;;;;;;;3.90;0.95;;;;;;;;;;5073898;28;20634;-86
2023/12/02 10:09:15;;;;;;;2.90;0.50;;;;;;;;;;5073022;28;20237;-87
2023/12/02 10:11:50;;;;;;;3.20;0.75;;;;;;;;;;5074804;28;20325;-88
2023/12/02 10:14:18;;;;;;;1.05;0.40;;;;;;;;;;5074468;28;20588;-87
2023/12/02 10:16:47;;;;;;;0.57;0.50;;;;;;;;;;5074478;28;20242;-88
2023/12/02 10:19:23;;;;;;;3.75;1.02;;;;;;;;;;5074970;28;20284;-87
2023/12/02 10:22:00;;;;;;;1.52;0.40;;;;;;;;;;5078818;28;20310;-88
2023/12/02 10:24:29;;;;;;;0.70;0.30;;;;;;;;;;5088751;28;20222;-89
2023/12/02 10:27:05;;;;;;;1.05;0.40;;;;;;;;;;5095201;28;20233;-88
2023/12/02 10:29:40;;;;;;;0.22;0.22;;;;;;;;;;5094073;28;20703;-88
2023/12/02 10:32:13;;;;;;;3.65;0.55;;;;;;;;;;5082336;28;20245;-87
2023/12/02 10:35:01;;;;;;;3.22;0.70;;;;;;;;;;5077198;28;20234;-90
2023/12/02 10:37:34;;;;;;;2.75;1.02;;;;;;;;;;5073449;28;20249;-88
2023/12/02 10:40:09;;;;;;;4.13;0.77;;;;;;;;;;5072551;28;20234;-89
2023/12/02 10:42:43;;;;;;;4.80;0.52;;;;;;;;;;5074154;28;20233;-86
2023/12/02 10:45:15;;;;;;;1.80;1.00;;;;;;;;;;5070852;28;20254;-87
2023/12/02 10:47:44;;;;;;;5.22;0.60;;;;;;;;;;5074425;28;20230;-86
2023/12/02 10:50:26;;;;;;;3.20;0.40;;;;;;;;;;5069082;28;20241;-87
2023/12/02 10:53:03;;;;;;;2.63;0.73;;;;;;;;;;5072793;28;20711;-87
2023/12/02 10:55:32;;;;;;;2.53;0.95;;;;;;;;;;5071799;28;20228;-87
2023/12/02 10:58:02;;;;;;;2.30;0.40;;;;;;;;;;5071844;28;20317;-85
2023/12/02 11:00:35;;;;;;;3.65;0.77;;;;;;;;;;5071106;28;20276;-87
2023/12/02 11:03:07;;;;;;;0.40;0.40;;;;;;;;;;5071753;28;20230;-87
2023/12/02 11:05:39;;;;;;;2.88;0.40;;;;;;;;;;5081753;28;20233;-86
2023/12/02 11:08:08;;;;;;;0.65;0.47;;;;;;;;;;5086102;28;20320;-87
2023/12/02 11:10:37;;;;;;;4.30;0.43;;;;;;;;;;5078477;28;20618;-87
2023/12/02 11:13:06;;;;;;;0.65;0.65;;;;;;;;;;5070562;28;20273;-89
2023/12/02 11:15:38;;;;;;;1.58;0.30;;;;;;;;;;5069994;28;20540;-86
2023/12/02 11:18:06;;;;;;;3.40;0.75;;;;;;;;;;5070902;28;20233;-87
2023/12/02 11:20:46;;;;;;;2.20;0.43;;;;;;;;;;5068969;28;20233;-86
2023/12/02 11:23:24;;;;;;;2.55;0.50;;;;;;;;;;5071069;28;20328;-87
2023/12/02 11:26:03;;;;;;;2.78;0.90;;;;;;;;;;5071118;28;20738;-88
2023/12/02 11:28:36;;;;;;;0.60;0.60;;;;;;;;;;5072042;28;20249;-87
2023/12/02 11:31:14;;;;;;;7.13;0.60;;;;;;;;;;5070088;28;20237;-88
2023/12/02 11:33:49;;;;;;;6.93;1.00;;;;;;;;;;5071404;28;20249;-87
2023/12/02 11:36:40;;;;;;;5.38;0.80;;;;;;;;;;5071272;28;20220;-87
2023/12/02 11:39:12;;;;;;;0.57;0.52;;;;;;;;;;5051347;28;20610;-87
2023/12/02 11:41:44;;;;;;;14.15;0.73;;;;;;;;;;5051884;28;20223;-88
2023/12/02 11:44:19;;;;;;;4.13;0.73;;;;;;;;;;5050144;28;20766;-88
2023/12/02 11:46:56;;;;;;;1.20;1.10;;;;;;;;;;5047776;28;20315;-88
2023/12/02 11:49:32;;;;;;;0.88;0.73;;;;;;;;;;5048944;28;20235;-88
2023/12/02 11:52:08;;;;;;;1.02;0.73;;;;;;;;;;5047781;28;20717;-88
2023/12/02 11:58:08;;;;;;;7.05;1.38;;;;;;;;;;5077509;22;20226;-88
2023/12/02 12:06:51;;;;;;;2.58;0.55;;;;;;;;;;5128259;22;20418;-86
2023/12/02 12:09:30;;;;;;;2.90;0.50;;;;;;;;;;5072031;28;20233;-86
2023/12/02 12:12:06;;;;;;;3.60;0.40;;;;;;;;;;5069745;28;20307;-86
2023/12/02 12:14:38;;;;;;;5.00;0.70;;;;;;;;;;5070780;28;20230;-86
2023/12/02 12:17:14;;;;;;;0.98;0.50;;;;;;;;;;5075404;28;20234;-87
2023/12/02 12:19:42;;;;;;;1.35;0.77;;;;;;;;;;5075913;28;20226;-85
2023/12/02 12:22:14;;;;;;;4.30;0.82;;;;;;;;;;5075159;28;20226;-88
2023/12/02 12:24:52;;;;;;;1.58;0.30;;;;;;;;;;5074952;28;20242;-86
2023/12/02 12:27:20;;;;;;;0.55;0.55;;;;;;;;;;5075935;28;20276;-87
2023/12/02 12:29:55;;;;;;;5.55;0.93;;;;;;;;;;5075747;28;20242;-88
2023/12/02 12:32:25;;;;;;;4.20;0.60;;;;;;;;;;5077429;28;20230;-85
2023/12/02 12:34:55;;;;;;;2.85;0.50;;;;;;;;;;5078951;28;20253;-87
2023/12/02 12:37:22;;;;;;;0.40;0.40;;;;;;;;;;5075692;28;20219;-85
2023/12/02 12:39:55;;;;;;;2.38;0.88;;;;;;;;;;5075747;28;20222;-87
2023/12/02 12:42:24;;;;;;;3.38;0.55;;;;;;;;;;5076337;28;20304;-86
2023/12/02 12:44:53;;;;;;;3.80;0.50;;;;;;;;;;5075123;28;20238;-86
2023/12/02 12:47:22;;;;;;;3.88;0.82;;;;;;;;;;5078433;28;20218;-86
2023/12/02 12:49:51;;;;;;;5.05;0.73;;;;;;;;;;5060762;28;20711;-86
2023/12/02 12:52:22;;;;;;;1.48;0.40;;;;;;;;;;5058028;28;20245;-88
2023/12/02 12:54:57;;;;;;;0.93;0.38;;;;;;;;;;5065589;28;20243;-85
2023/12/02 12:57:43;;;;;;;2.05;0.65;;;;;;;;;;5061504;28;20199;-87
2023/12/02 13:00:20;;;;;;;2.17;0.70;;;;;;;;;;5060747;28;20242;-87
2023/12/02 13:02:57;;;;;;;3.60;0.65;;;;;;;;;;5058740;28;20198;-87
2023/12/02 13:05:28;;;;;;;1.85;0.32;;;;;;;;;;5056399;28;20325;-87
2023/12/02 13:08:02;;;;;;;1.50;0.85;;;;;;;;;;5060774;28;20588;-86
2023/12/02 13:10:33;;;;;;;4.60;0.55;;;;;;;;;;5061686;28;20199;-85
2023/12/02 13:13:02;;;;;;;1.00;0.50;;;;;;;;;;5057343;28;20625;-86
2023/12/02 13:15:34;;;;;;;3.95;1.23;;;;;;;;;;5061676;28;20206;-86
2023/12/02 13:18:11;;;;;;;0.40;0.40;;;;;;;;;;5065056;28;20195;-87
2023/12/02 13:20:43;;;;;;;2.75;0.68;;;;;;;;;;5064331;28;20199;-87
2023/12/02 13:23:14;;;;;;;1.90;0.40;;;;;;;;;;5070119;28;20286;-86
2023/12/02 13:25:45;;;;;;;3.78;0.68;;;;;;;;;;5065439;28;20230;-87
2023/12/02 13:28:18;;;;;;;1.70;0.90;;;;;;;;;;5067441;28;20191;-87
2023/12/02 13:30:49;;;;;;;2.55;0.77;;;;;;;;;;5065710;28;20659;-88
2023/12/02 13:33:31;;;;;;;1.83;0.90;;;;;;;;;;5066664;28;20249;-87
2023/12/02 13:36:09;;;;;;;0.85;0.85;;;;;;;;;;5064085;28;20206;-85
2023/12/02 13:38:42;;;;;;;1.70;0.50;;;;;;;;;;5064477;28;20306;-87
2023/12/02 13:44:33;;;;;;;4.47;0.63;;;;;;;;;;5072921;28;20845;-86
2023/12/02 13:52:49;;;;;;;1.88;0.80;;;;;;;;;;5062635;28;20198;-87
2023/12/02 13:55:38;;;;;;;5.18;0.52;;;;;;;;;;5055860;28;20198;-88
2023/12/02 13:58:11;;;;;;;1.67;0.38;;;;;;;;;;5055973;28;20196;-87
2023/12/02 14:00:44;;;;;;;2.60;0.95;;;;;;;;;;5054706;28;20203;-87
2023/12/02 14:03:24;;;;;;;3.40;0.77;;;;;;;;;;5056371;28;20278;-87
2023/12/02 14:05:53;;;;;;;7.05;0.70;;;;;;;;;;5056291;28;20234;-86
2023/12/02 14:08:22;;;;;;;6.38;0.90;;;;;;;;;;5055688;28;20254;-85
2023/12/02 14:10:52;;;;;;;3.05;1.58;;;;;;;;;;5056402;28;20206;-88
2023/12/02 14:13:29;;;;;;;5.30;0.90;;;;;;;;;;5057771;28;20199;-86
2023/12/02 14:16:03;;;;;;;3.38;0.82;;;;;;;;;;5056703;28;20202;-86
2023/12/02 14:18:45;;;;;;;3.30;0.68;;;;;;;;;;5058855;28;20250;-86
2023/12/02 14:21:18;;;;;;;2.42;0.60;;;;;;;;;;5003263;28;20249;-86
2023/12/02 14:23:55;;;;;;;3.40;0.90;;;;;;;;;;5057114;28;20200;-87
2023/12/02 14:26:41;;;;;;;2.42;0.47;;;;;;;;;;5062195;28;20234;-86
2023/12/02 14:29:14;;;;;;;3.80;0.70;;;;;;;;;;5013991;28;20237;-88
2023/12/02 14:31:50;;;;;;;4.85;0.55;;;;;;;;;;5068013;28;20200;-87
2023/12/02 14:34:29;;;;;;;5.20;0.63;;;;;;;;;;5068079;28;20214;-88
2023/12/02 14:37:08;;;;;;;0.60;0.60;;;;;;;;;;5069198;28;20823;-88
2023/12/02 14:39:47;;;;;;;0.60;0.60;;;;;;;;;;5066501;28;20218;-86
2023/12/02 14:42:31;;;;;;;4.13;0.50;;;;;;;;;;5070106;28;20206;-87
2023/12/02 14:45:04;;;;;;;6.97;0.82;;;;;;;;;;5068715;28;20223;-84
2023/12/02 14:47:38;;;;;;;3.50;0.65;;;;;;;;;;5067580;28;20252;-85
2023/12/02 14:50:16;;;;;;;2.15;0.77;;;;;;;;;;5051762;28;20234;-87
2023/12/02 14:52:44;;;;;;;6.03;1.08;;;;;;;;;;5066407;28;20229;-88
2023/12/02 14:55:12;;;;;;;5.43;0.88;;;;;;;;;;5065577;28;20234;-86
2023/12/02 14:57:42;;;;;;;10.02;0.80;;;;;;;;;;5065800;28;20284;-89
2023/12/02 15:00:13;;;;;;;0.73;0.30;;;;;;;;;;5070178;28;20233;-86
2023/12/02 15:05:45;;;;;;;2.00;0.68;;;;;;;;;;5019921;28;20269;-87
2023/12/02 15:08:17;;;;;;;0.52;0.50;;;;;;;;;;5066096;28;20261;-87
2023/12/02 15:10:46;;;;;;;3.60;0.63;;;;;;;;;;5063091;28;20572;-88
2023/12/02 15:13:19;;;;;;;0.30;0.30;;;;;;;;;;5063534;28;20232;-88
2023/12/02 15:16:01;;;;;;;3.60;0.70;;;;;;;;;;5051996;28;20254;-87
2023/12/02 15:18:30;;;;;;;3.13;0.90;;;;;;;;;;5051034;28;20268;-88
2023/12/02 15:21:08;;;;;;;4.35;0.80;;;;;;;;;;5049880;28;20621;-85
2023/12/02 15:23:36;;;;;;;2.17;0.93;;;;;;;;;;5052164;28;20256;-87
2023/12/02 15:26:05;;;;;;;5.78;1.35;;;;;;;;;;5054324;28;20365;-86
2023/12/02 15:28:48;;;;;;;3.80;0.70;;;;;;;;;;5055964;28;20230;-87
2023/12/02 15:31:25;;;;;;;1.98;0.80;;;;;;;;;;5050977;28;20224;-86
2023/12/02 15:33:55;;;;;;;4.68;1.08;;;;;;;;;;5049550;28;20371;-86
2023/12/02 15:36:26;;;;;;;0.73;0.60;;;;;;;;;;5048764;28;20341;-88
2023/12/02 15:38:54;;;;;;;2.17;0.80;;;;;;;;;;5050703;28;20745;-84